createdAt,value
2023-01-25T00:00:44.540Z,25.10
2023-01-25T00:03:11.423Z,24.85
2023-01-25T00:05:38.356Z,22.75
2023-01-25T00:08:05.484Z,18.27
2023-01-25T00:10:32.236Z,20.13
2023-01-25T00:12:59.010Z,23.58
2023-01-25T00:15:25.804Z,20.95
2023-01-25T00:17:52.645Z,18.55
2023-01-25T00:20:19.487Z,20.38
2023-01-25T00:22:46.246Z,24.67
2023-01-25T00:25:13.061Z,21.67
2023-01-25T00:27:40.382Z,26.02
2023-01-25T00:30:07.840Z,21.90
2023-01-25T00:33:15.865Z,18.48
2023-01-25T00:35:45.072Z,17.48
2023-01-25T00:38:29.920Z,20.70
2023-01-25T00:40:57.884Z,19.85
2023-01-25T00:43:24.794Z,20.70
2023-01-25T00:45:51.613Z,20.45
2023-01-25T00:48:18.459Z,24.17
2023-01-25T00:50:45.237Z,17.92
2023-01-25T00:53:12.017Z,22.15
2023-01-25T00:55:38.798Z,19.13
2023-01-25T00:58:05.566Z,18.15
2023-01-25T01:00:32.302Z,20.88
2023-01-25T01:02:59.217Z,25.65
2023-01-25T01:05:27.506Z,23.52
2023-01-25T01:07:56.344Z,20.80
2023-01-25T01:10:23.139Z,20.13
2023-01-25T01:12:51.025Z,20.48
2023-01-25T01:15:17.824Z,21.02
2023-01-25T01:17:44.584Z,17.48
2023-01-25T01:20:11.820Z,14.98
2023-01-25T01:22:38.624Z,16.15
2023-01-25T01:25:06.689Z,18.58
2023-01-25T01:27:33.531Z,16.42
2023-01-25T01:30:00.309Z,18.98
2023-01-25T01:32:27.234Z,20.55
2023-01-25T01:34:54.093Z,21.48
2023-01-25T01:37:20.857Z,18.88
2023-01-25T01:39:47.743Z,19.75
2023-01-25T01:42:14.560Z,18.95
2023-01-25T01:44:53.037Z,20.08
2023-01-25T01:47:28.479Z,19.33
2023-01-25T01:50:01.499Z,16.55
2023-01-25T01:52:33.424Z,16.75
2023-01-25T01:55:08.418Z,15.77
2023-01-25T01:57:43.409Z,16.45
2023-01-25T02:00:23.240Z,16.88
2023-01-25T02:02:51.552Z,18.05
2023-01-25T02:05:40.800Z,14.85
2023-01-25T02:08:11.172Z,17.75
2023-01-25T02:10:39.703Z,18.08
2023-01-25T02:13:06.489Z,19.25
2023-01-25T02:15:47.760Z,16.10
2023-01-25T02:18:15.807Z,15.95
2023-01-25T02:20:45.134Z,18.42
2023-01-25T02:23:48.651Z,22.15
2023-01-25T02:26:17.271Z,19.33
2023-01-25T02:28:47.565Z,17.05
2023-01-25T02:31:14.565Z,18.60
2023-01-25T02:33:41.403Z,16.38
2023-01-25T02:36:08.102Z,15.27
2023-01-25T02:38:38.959Z,16.20
2023-01-25T02:41:17.702Z,15.85
2023-01-25T02:43:44.653Z,16.10
2023-01-25T02:46:27.477Z,15.32
2023-01-25T02:48:56.438Z,15.60
2023-01-25T02:51:25.246Z,16.00
2023-01-25T02:53:52.702Z,15.65
2023-01-25T02:56:19.634Z,14.68
2023-01-25T02:58:46.898Z,11.63
2023-01-25T03:01:14.144Z,13.15
2023-01-25T03:03:41.235Z,12.98
2023-01-25T03:06:08.528Z,13.52
2023-01-25T03:08:35.534Z,13.80
2023-01-25T03:11:04.566Z,13.05
2023-01-25T03:13:33.998Z,14.07
2023-01-25T03:16:12.739Z,14.07
2023-01-25T03:18:40.370Z,15.57
2023-01-25T03:21:17.236Z,17.15
2023-01-25T03:23:44.934Z,16.63
2023-01-25T03:26:17.425Z,14.75
2023-01-25T03:31:13.689Z,15.02
2023-01-25T03:33:40.951Z,13.48
2023-01-25T03:36:08.429Z,14.35
2023-01-25T03:38:35.475Z,17.35
2023-01-25T03:41:02.996Z,14.85
2023-01-25T03:43:29.947Z,16.83
2023-01-25T03:45:58.959Z,15.32
2023-01-25T03:48:27.009Z,14.43
2023-01-25T03:50:56.510Z,16.33
2023-01-25T03:53:33.915Z,12.77
2023-01-25T03:56:03.056Z,14.00
2023-01-25T03:58:31.189Z,14.38
2023-01-25T04:01:00.486Z,14.80
2023-01-25T04:03:30.191Z,14.30
2023-01-25T04:05:58.455Z,13.80
2023-01-25T04:08:26.662Z,13.82
2023-01-25T04:11:06.020Z,14.00
2023-01-25T04:13:35.323Z,15.48
2023-01-25T04:16:03.132Z,14.57
2023-01-25T04:18:29.848Z,15.48
2023-01-25T04:20:57.495Z,13.55
2023-01-25T04:23:25.472Z,16.17
2023-01-25T04:26:01.034Z,17.48
2023-01-25T04:28:28.593Z,14.50
2023-01-25T04:30:56.860Z,14.70
2023-01-25T04:33:23.900Z,17.65
2023-01-25T04:35:50.719Z,16.80
2023-01-25T04:38:17.475Z,14.00
2023-01-25T04:40:44.811Z,14.73
2023-01-25T04:43:13.597Z,15.65
2023-01-25T04:45:40.534Z,14.93
2023-01-25T04:48:12.363Z,21.35
2023-01-25T04:50:40.978Z,20.50
2023-01-25T04:53:09.079Z,20.92
2023-01-25T04:55:36.015Z,18.15
2023-01-25T04:58:03.593Z,19.83
2023-01-25T05:00:31.221Z,17.63
2023-01-25T05:02:58.131Z,17.67
2023-01-25T05:05:25.018Z,19.48
2023-01-25T05:07:51.757Z,21.23
2023-01-25T05:10:18.675Z,19.10
2023-01-25T05:12:45.548Z,17.02
2023-01-25T05:15:12.581Z,18.70
2023-01-25T05:17:39.614Z,18.90
2023-01-25T05:20:06.716Z,20.10
2023-01-25T05:22:33.502Z,20.98
2023-01-25T05:25:01.914Z,18.88
2023-01-25T05:27:28.717Z,19.83
2023-01-25T05:29:56.130Z,22.98
2023-01-25T05:32:23.853Z,20.17
2023-01-25T05:34:50.827Z,21.80
2023-01-25T05:37:20.291Z,22.58
2023-01-25T05:39:47.311Z,21.50
2023-01-25T05:42:16.889Z,25.48
2023-01-25T05:44:47.599Z,24.73
2023-01-25T05:47:16.825Z,23.17
2023-01-25T05:49:44.506Z,24.75
2023-01-25T05:52:14.879Z,25.50
2023-01-25T05:54:43.884Z,27.67
2023-01-25T05:57:10.879Z,21.73
2023-01-25T05:59:37.642Z,25.48
2023-01-25T06:02:04.389Z,27.80
2023-01-25T06:04:31.181Z,23.63
2023-01-25T06:06:58.003Z,28.98
2023-01-25T06:09:26.436Z,27.98
2023-01-25T06:11:53.253Z,30.88
2023-01-25T06:14:20.079Z,33.88
2023-01-25T06:16:46.813Z,34.63
2023-01-25T06:19:14.071Z,35.45
2023-01-25T06:21:46.138Z,35.78
2023-01-25T06:24:14.092Z,36.10
2023-01-25T06:26:40.818Z,38.08
2023-01-25T06:29:07.864Z,39.70
2023-01-25T06:31:35.059Z,39.90
2023-01-25T06:34:04.533Z,38.17
2023-01-25T06:36:31.377Z,37.95
2023-01-25T06:38:58.395Z,42.10
2023-01-25T06:41:25.931Z,41.30
2023-01-25T06:43:53.500Z,44.53
2023-01-25T06:46:20.430Z,39.88
2023-01-25T06:48:47.342Z,44.85
2023-01-25T06:51:15.076Z,43.03
2023-01-25T06:53:44.525Z,42.80
2023-01-25T06:56:29.348Z,39.10
2023-01-25T06:58:56.105Z,42.35
2023-01-25T07:01:27.485Z,38.10
2023-01-25T07:03:56.440Z,39.73
2023-01-25T07:06:24.692Z,40.70
2023-01-25T07:08:51.651Z,43.05
2023-01-25T07:11:19.161Z,39.22
2023-01-25T07:13:47.668Z,36.38
2023-01-25T07:16:18.893Z,34.92
2023-01-25T07:18:46.105Z,38.90
2023-01-25T07:21:16.037Z,35.67
2023-01-25T07:23:42.899Z,35.65
2023-01-25T07:26:18.870Z,30.75
2023-01-25T07:28:47.258Z,35.25
2023-01-25T07:31:15.303Z,35.95
2023-01-25T07:33:42.188Z,36.55
2023-01-25T07:36:10.902Z,34.17
2023-01-25T07:38:38.179Z,34.00
2023-01-25T07:41:05.146Z,31.83
2023-01-25T07:43:32.259Z,35.60
2023-01-25T07:46:08.193Z,36.78
2023-01-25T07:48:35.020Z,39.83
2023-01-25T07:51:12.527Z,38.67
2023-01-25T07:53:40.755Z,41.40
2023-01-25T07:56:09.352Z,40.58
2023-01-25T07:58:36.151Z,35.33
2023-01-25T08:01:10.734Z,34.75
2023-01-25T08:03:37.576Z,40.08
2023-01-25T08:06:07.794Z,33.45
2023-01-25T08:08:36.263Z,32.65
2023-01-25T08:11:20.276Z,35.38
2023-01-25T08:13:49.689Z,33.55
2023-01-25T08:16:18.564Z,32.42
2023-01-25T08:18:56.040Z,33.28
2023-01-25T08:21:29.968Z,27.08
2023-01-25T08:24:02.477Z,28.25
2023-01-25T08:29:06.294Z,29.40
2023-01-25T08:31:35.267Z,29.27
2023-01-25T08:34:02.460Z,28.02
2023-01-25T08:36:29.708Z,26.30
2023-01-25T08:39:01.607Z,33.85
2023-01-25T08:41:30.208Z,19.55
2023-01-25T08:43:57.426Z,26.67
2023-01-25T08:46:27.230Z,30.52
2023-01-25T08:48:56.335Z,24.45
2023-01-25T08:51:24.550Z,23.42
2023-01-25T08:53:51.323Z,23.60
2023-01-25T08:56:18.150Z,20.30
2023-01-25T08:58:46.840Z,24.50
2023-01-25T09:01:15.688Z,26.58
2023-01-25T09:03:45.115Z,26.00
2023-01-25T09:06:12.915Z,30.67
2023-01-25T09:08:40.158Z,35.22
2023-01-25T09:11:15.400Z,30.30
2023-01-25T09:13:45.478Z,22.05
2023-01-25T09:16:15.617Z,19.63
2023-01-25T09:18:44.326Z,20.52
2023-01-25T09:21:13.725Z,19.17
2023-01-25T09:23:50.526Z,21.02
2023-01-25T09:26:18.733Z,18.45
2023-01-25T09:28:50.452Z,19.10
2023-01-25T09:31:22.292Z,16.35
2023-01-25T09:33:51.669Z,21.48
2023-01-25T09:36:19.045Z,17.52
2023-01-25T09:38:45.953Z,19.83
2023-01-25T09:41:44.740Z,21.08
2023-01-25T09:44:24.186Z,19.42
2023-01-25T09:46:55.252Z,20.90
2023-01-25T09:49:52.665Z,19.45
2023-01-25T09:52:59.215Z,31.35
2023-01-25T09:55:29.712Z,31.33
2023-01-25T09:58:00.319Z,24.40
2023-01-25T10:00:42.046Z,17.10
2023-01-25T10:03:27.348Z,23.98
2023-01-25T10:05:58.773Z,24.02
2023-01-25T10:08:34.494Z,21.83
2023-01-25T10:11:24.799Z,22.42
2023-01-25T10:13:51.854Z,24.45
2023-01-25T10:16:35.905Z,25.77
2023-01-25T10:19:15.657Z,26.83
2023-01-25T10:21:44.171Z,21.77
2023-01-25T10:24:31.983Z,22.50
2023-01-25T10:27:23.084Z,26.52
2023-01-25T10:29:52.250Z,25.05
2023-01-25T10:32:31.930Z,25.23
2023-01-25T10:35:17.417Z,27.85
2023-01-25T10:37:46.921Z,28.40
2023-01-25T10:40:23.973Z,25.85
2023-01-25T10:42:56.263Z,32.17
2023-01-25T10:45:23.050Z,25.58
2023-01-25T10:48:03.504Z,24.77
2023-01-25T10:50:42.212Z,33.50
2023-01-25T10:53:29.273Z,27.67
2023-01-25T10:56:11.341Z,30.40
2023-01-25T10:58:39.482Z,29.60
2023-01-25T11:01:09.497Z,33.95
2023-01-25T11:03:42.199Z,40.67
2023-01-25T11:06:09.578Z,42.40
2023-01-25T11:08:39.445Z,43.70
2023-01-25T11:11:38.253Z,42.30
2023-01-25T11:14:17.537Z,30.25
2023-01-25T11:16:49.899Z,28.55
2023-01-25T11:19:33.435Z,34.53
2023-01-25T11:22:02.309Z,28.88
2023-01-25T11:24:31.742Z,31.90
2023-01-25T11:27:21.895Z,34.50
2023-01-25T11:30:12.711Z,34.28
2023-01-25T11:32:40.298Z,44.58
2023-01-25T11:35:17.966Z,36.25
2023-01-25T11:38:05.931Z,54.45
2023-01-25T11:40:44.354Z,45.50
2023-01-25T11:43:11.029Z,42.90
2023-01-25T11:45:46.733Z,39.88
2023-01-25T11:48:43.420Z,37.15
2023-01-25T11:51:14.055Z,35.65
2023-01-25T11:53:43.551Z,45.85
2023-01-25T11:56:15.568Z,44.05
2023-01-25T11:58:53.589Z,37.78
2023-01-25T12:01:48.202Z,52.88
2023-01-25T12:04:41.778Z,42.22
2023-01-25T12:07:41.142Z,50.70
2023-01-25T12:10:38.872Z,45.97
2023-01-25T12:13:47.453Z,43.10
2023-01-25T12:16:41.953Z,42.42
2023-01-25T12:19:34.376Z,49.17
2023-01-25T12:22:24.081Z,44.22
2023-01-25T12:25:18.534Z,40.40
2023-01-25T12:27:51.405Z,31.13
2023-01-25T12:30:44.385Z,35.55
2023-01-25T12:34:07.748Z,32.97
2023-01-25T12:36:44.914Z,35.10
2023-01-25T12:39:38.177Z,35.53
2023-01-25T12:42:20.499Z,34.70
2023-01-25T12:44:54.796Z,32.88
2023-01-25T12:47:32.948Z,33.40
2023-01-25T12:50:13.533Z,43.20
2023-01-25T12:53:07.059Z,41.95
2023-01-25T12:55:33.861Z,36.22
2023-01-25T12:58:06.997Z,37.72
2023-01-25T13:00:57.577Z,45.40
2023-01-25T13:03:29.720Z,46.50
2023-01-25T13:06:31.848Z,42.15
2023-01-25T13:09:20.299Z,38.57
2023-01-25T13:11:48.333Z,37.70
2023-01-25T13:14:18.146Z,32.88
2023-01-25T13:17:12.917Z,42.42
2023-01-25T13:19:42.287Z,39.17
2023-01-25T13:22:13.505Z,43.20
2023-01-25T13:25:22.923Z,43.17
2023-01-25T13:27:49.977Z,43.55
2023-01-25T13:30:16.666Z,39.60
2023-01-25T13:32:49.459Z,43.90
2023-01-25T13:35:40.992Z,44.13
2023-01-25T13:38:32.266Z,35.78
2023-01-25T13:41:18.062Z,44.75
2023-01-25T13:43:48.025Z,36.75
2023-01-25T13:46:18.822Z,37.70
2023-01-25T13:49:01.930Z,39.13
2023-01-25T13:51:33.887Z,46.95
2023-01-25T13:54:00.846Z,37.40
2023-01-25T13:56:35.375Z,49.25
2023-01-25T13:59:02.306Z,35.78
2023-01-25T14:01:32.064Z,34.35
2023-01-25T14:04:02.257Z,33.10
2023-01-25T14:06:38.639Z,32.30
2023-01-25T14:09:20.720Z,27.75
2023-01-25T14:12:00.499Z,36.55
2023-01-25T14:14:28.810Z,30.70
2023-01-25T14:17:23.405Z,30.85
2023-01-25T14:19:55.395Z,34.90
2023-01-25T14:22:49.173Z,39.70
2023-01-25T14:25:18.550Z,34.92
2023-01-25T14:27:54.337Z,35.03
2023-01-25T14:30:27.872Z,40.95
2023-01-25T14:32:57.430Z,36.13
2023-01-25T14:35:42.351Z,48.45
2023-01-25T14:38:26.568Z,39.47
2023-01-25T14:41:06.596Z,36.15
2023-01-25T14:43:35.937Z,40.53
2023-01-25T14:46:19.086Z,39.25
2023-01-25T14:48:47.100Z,37.95
2023-01-25T14:51:32.752Z,35.22
2023-01-25T14:54:05.887Z,34.47
2023-01-25T14:56:45.343Z,38.58
2023-01-25T14:59:24.747Z,46.88
2023-01-25T15:01:54.359Z,61.45
2023-01-25T15:04:21.287Z,45.08
2023-01-25T15:06:50.552Z,41.20
2023-01-25T15:09:42.933Z,40.63
2023-01-25T15:12:15.699Z,45.03
2023-01-25T15:14:50.953Z,37.85
2023-01-25T15:17:38.252Z,38.45
2023-01-25T15:20:05.658Z,36.80
2023-01-25T15:22:32.433Z,43.00
2023-01-25T15:24:59.184Z,36.70
2023-01-25T15:27:25.975Z,36.80
2023-01-25T15:29:52.756Z,39.90
2023-01-25T15:32:21.589Z,39.78
2023-01-25T15:34:48.682Z,35.35
2023-01-25T15:37:15.520Z,38.97
2023-01-25T15:39:42.305Z,36.97
2023-01-25T15:42:09.735Z,38.25
2023-01-25T15:44:36.529Z,36.72
2023-01-25T15:47:03.322Z,36.50
2023-01-25T15:49:31.707Z,33.65
2023-01-25T15:51:58.764Z,37.67
2023-01-25T15:54:26.427Z,34.78
2023-01-25T15:56:57.013Z,30.98
2023-01-25T15:59:24.365Z,32.95
2023-01-25T16:01:51.222Z,33.05
2023-01-25T16:04:18.075Z,31.42
2023-01-25T16:06:50.832Z,33.97
2023-01-25T16:09:23.699Z,35.78
2023-01-25T16:11:58.646Z,38.13
2023-01-25T16:14:30.209Z,33.13
2023-01-25T16:17:01.415Z,30.07
2023-01-25T16:19:29.757Z,37.15
2023-01-25T16:21:57.188Z,35.03
2023-01-25T16:24:24.389Z,29.38
2023-01-25T16:26:56.934Z,33.10
2023-01-25T16:31:51.952Z,33.70
2023-01-25T16:34:20.413Z,32.33
2023-01-25T16:36:50.554Z,35.65
2023-01-25T16:39:20.975Z,31.85
2023-01-25T16:41:48.542Z,29.13
2023-01-25T16:44:15.625Z,37.13
2023-01-25T16:46:45.003Z,33.55
2023-01-25T16:49:17.134Z,49.13
2023-01-25T16:51:45.524Z,39.00
2023-01-25T16:54:12.713Z,41.50
2023-01-25T16:56:39.536Z,37.08
2023-01-25T16:59:07.223Z,49.80
2023-01-25T17:01:34.035Z,53.72
2023-01-25T17:04:00.857Z,53.60
2023-01-25T17:06:33.601Z,40.70
2023-01-25T17:09:20.533Z,32.67
2023-01-25T17:11:49.579Z,33.95
2023-01-25T17:14:18.918Z,39.47
2023-01-25T17:16:48.084Z,31.83
2023-01-25T17:19:16.917Z,30.00
2023-01-25T17:21:44.474Z,25.42
2023-01-25T17:24:14.609Z,28.02
2023-01-25T17:26:41.458Z,30.92
2023-01-25T17:29:10.177Z,26.80
2023-01-25T17:31:38.258Z,27.08
2023-01-25T17:34:08.459Z,27.48
2023-01-25T17:36:35.278Z,30.45
2023-01-25T17:39:07.293Z,32.35
2023-01-25T17:41:36.064Z,29.63
2023-01-25T17:44:02.902Z,32.67
2023-01-25T17:46:33.661Z,32.33
2023-01-25T17:49:02.221Z,28.88
2023-01-25T17:51:30.280Z,30.08
2023-01-25T17:53:57.803Z,28.55
2023-01-25T17:56:25.510Z,32.80
2023-01-25T17:58:52.736Z,36.50
2023-01-25T18:01:25.570Z,33.80
2023-01-25T18:03:54.179Z,29.75
2023-01-25T18:06:25.135Z,34.85
2023-01-25T18:08:54.900Z,37.88
2023-01-25T18:11:25.908Z,29.73
2023-01-25T18:13:55.509Z,31.70
2023-01-25T18:16:24.031Z,35.97
2023-01-25T18:18:52.607Z,33.58
2023-01-25T18:21:25.086Z,29.25
2023-01-25T18:26:27.741Z,34.22
2023-01-25T18:28:58.503Z,34.33
2023-01-25T18:31:25.620Z,22.35
2023-01-25T18:33:52.451Z,31.80
2023-01-25T18:36:20.302Z,30.77
2023-01-25T18:38:47.084Z,28.02
2023-01-25T18:41:13.995Z,32.50
2023-01-25T18:43:40.733Z,25.35
2023-01-25T18:46:07.648Z,25.33
2023-01-25T18:48:34.548Z,27.42
2023-01-25T18:51:07.648Z,26.65
2023-01-25T18:53:36.256Z,27.85
2023-01-25T18:56:04.373Z,29.27
2023-01-25T18:58:33.271Z,28.67
2023-01-25T19:01:18.039Z,26.38
2023-01-25T19:03:46.567Z,26.88
2023-01-25T19:06:14.378Z,23.55
2023-01-25T19:08:43.022Z,31.92
2023-01-25T19:11:15.285Z,33.45
2023-01-25T19:13:43.124Z,30.05
2023-01-25T19:16:16.088Z,33.78
2023-01-25T19:18:48.156Z,33.50
2023-01-25T19:21:16.600Z,33.60
2023-01-25T19:23:43.801Z,33.42
2023-01-25T19:26:16.736Z,36.78
2023-01-25T19:28:44.157Z,30.70
2023-01-25T19:31:10.958Z,34.08
2023-01-25T19:33:38.131Z,39.75
2023-01-25T19:36:06.842Z,43.33
2023-01-25T19:38:37.507Z,45.92
2023-01-25T19:41:12.493Z,39.10
2023-01-25T19:43:41.569Z,41.53
2023-01-25T19:46:18.770Z,42.10
2023-01-25T19:48:49.767Z,36.58
2023-01-25T19:51:22.805Z,39.42
2023-01-25T19:54:03.325Z,44.72
2023-01-25T19:56:36.563Z,39.22
2023-01-25T19:59:11.950Z,46.35
2023-01-25T20:01:41.852Z,40.47
2023-01-25T20:04:08.982Z,41.08
2023-01-25T20:06:35.973Z,46.55
2023-01-25T20:09:03.639Z,38.75
2023-01-25T20:11:32.618Z,42.35
2023-01-25T20:14:02.244Z,41.78
2023-01-25T20:16:32.013Z,44.15
2023-01-25T20:18:59.708Z,47.35
2023-01-25T20:21:28.164Z,44.50
2023-01-25T20:24:00.240Z,46.90
2023-01-25T20:26:29.938Z,51.75
2023-01-25T20:28:58.078Z,48.10
2023-01-25T20:31:25.035Z,49.17
2023-01-25T20:33:54.963Z,49.83
2023-01-25T20:36:22.815Z,47.92
2023-01-25T20:38:49.738Z,45.97
2023-01-25T20:41:18.287Z,47.15
2023-01-25T20:43:54.208Z,48.65
2023-01-25T20:46:22.156Z,48.55
2023-01-25T20:48:49.305Z,49.25
2023-01-25T20:51:21.416Z,49.95
2023-01-25T20:53:50.101Z,48.42
2023-01-25T20:56:18.619Z,49.88
2023-01-25T20:58:50.412Z,45.05
2023-01-25T21:01:28.316Z,52.00
2023-01-25T21:03:56.927Z,45.03
2023-01-25T21:06:27.316Z,46.45
2023-01-25T21:08:54.843Z,51.20
2023-01-25T21:11:23.256Z,50.67
2023-01-25T21:13:50.040Z,51.03
2023-01-25T21:16:19.260Z,45.08
2023-01-25T21:18:48.538Z,51.10
2023-01-25T21:21:18.585Z,52.20
2023-01-25T21:23:47.395Z,52.80
2023-01-25T21:26:22.222Z,52.05
2023-01-25T21:28:49.992Z,50.00
2023-01-25T21:31:21.055Z,54.38
2023-01-25T21:33:48.487Z,57.17
2023-01-25T21:36:16.336Z,57.20
2023-01-25T21:38:45.159Z,48.40
2023-01-25T21:41:15.370Z,54.42
2023-01-25T21:44:00.842Z,58.63
2023-01-25T21:46:28.753Z,56.35
2023-01-25T21:49:15.996Z,58.88
2023-01-25T21:51:51.484Z,60.38
2023-01-25T21:54:19.399Z,56.72
2023-01-25T21:56:47.503Z,53.00
2023-01-25T21:59:14.923Z,58.22
2023-01-25T22:01:43.144Z,58.45
2023-01-25T22:04:10.633Z,63.00
2023-01-25T22:06:37.773Z,62.55
2023-01-25T22:09:05.152Z,62.15
2023-01-25T22:11:32.067Z,61.88
2023-01-25T22:13:59.129Z,70.60
2023-01-25T22:16:26.003Z,62.92
2023-01-25T22:18:53.079Z,62.30
2023-01-25T22:21:25.141Z,68.55
2023-01-25T22:23:52.388Z,62.13
2023-01-25T22:26:21.584Z,65.32
2023-01-25T22:28:53.802Z,65.05
2023-01-25T22:31:26.287Z,62.95
2023-01-25T22:33:54.312Z,70.53
2023-01-25T22:36:27.110Z,69.47
2023-01-25T22:38:54.025Z,71.07
2023-01-25T22:41:26.108Z,73.50
2023-01-25T22:43:53.786Z,65.68
2023-01-25T22:46:23.511Z,66.22
2023-01-25T22:48:50.667Z,67.43
2023-01-25T22:51:20.465Z,63.03
2023-01-25T22:53:47.477Z,61.88
2023-01-25T22:56:20.399Z,73.97
2023-01-25T22:58:47.942Z,72.43
2023-01-25T23:01:23.390Z,73.22
2023-01-25T23:03:50.999Z,75.40
2023-01-25T23:06:20.421Z,71.93
2023-01-25T23:08:47.843Z,71.15
2023-01-25T23:11:20.670Z,74.85
2023-01-25T23:14:07.284Z,78.80
2023-01-25T23:16:35.426Z,79.22
2023-01-25T23:19:04.007Z,73.88
2023-01-25T23:21:31.264Z,75.00
2023-01-25T23:24:00.957Z,81.95
2023-01-25T23:26:29.694Z,80.65
2023-01-25T23:28:57.932Z,80.88
2023-01-25T23:31:26.113Z,76.55
2023-01-25T23:33:58.663Z,79.03
2023-01-25T23:38:54.672Z,76.55
2023-01-25T23:41:23.915Z,77.60
2023-01-25T23:43:50.918Z,75.05
2023-01-25T23:46:18.284Z,77.60
2023-01-25T23:48:46.093Z,81.15
2023-01-25T23:51:14.498Z,79.15
2023-01-25T23:53:41.581Z,78.03
2023-01-25T23:56:13.240Z,79.85
2023-01-25T23:58:40.401Z,79.65
